Time;durP1;ratioP1;P1;durP2;ratioP2;P2;SDS_P1;SDS_P2;PMS_P1;PMS_P2;Temp;Humidity;BMP_temperature;BMP_pressure;BME280_temperature;BME280_humidity;BME280_pressure;Samples;Min_cycle;Max_cycle;Signal;HPM_P1;HPM_P2
2023/08/09 00:00:08;;;;;;;4.22;1.80;;;;;;;22.75;99.25;96075.13;5072980;28;20340;-84
2023/08/09 00:02:33;;;;;;;4.60;2.20;;;;;;;23.21;97.16;96074.09;5055213;28;20470;-85
2023/08/09 00:05:05;;;;;;;6.75;3.05;;;;;;;23.14;96.95;96073.47;5073526;28;20027;-85
2023/08/09 00:07:31;;;;;;;4.57;1.88;;;;;;;23.17;97.30;96082.88;5066018;28;20028;-84
2023/08/09 00:09:56;;;;;;;4.60;2.33;;;;;;;23.10;97.31;96066.94;5074472;28;20057;-85
2023/08/09 00:12:22;;;;;;;3.58;1.95;;;;;;;22.95;98.07;96072.03;5050531;28;20024;-85
2023/08/09 00:15:01;;;;;;;5.25;2.22;;;;;;;22.89;99.56;96068.41;5073835;28;20020;-85
2023/08/09 00:17:40;;;;;;;5.97;2.05;;;;;;;22.89;97.46;96071.09;5059003;28;20104;-84
2023/08/09 00:20:08;;;;;;;5.77;2.07;;;;;;;22.91;100.00;96069.00;5055849;28;20017;-85
2023/08/09 00:22:33;;;;;;;6.35;1.98;;;;;;;22.98;100.00;96068.88;5046668;28;20017;-85
2023/08/09 00:24:59;;;;;;;4.40;2.00;;;;;;;23.13;99.13;96068.31;5048196;28;20029;-84
2023/08/09 00:27:28;;;;;;;4.00;1.97;;;;;;;22.81;100.00;96066.13;5064419;28;20021;-85
2023/08/09 00:29:54;;;;;;;4.63;2.10;;;;;;;22.79;100.00;96057.50;5072482;28;20035;-84
2023/08/09 00:32:20;;;;;;;4.80;1.90;;;;;;;22.69;100.00;96066.16;5072342;28;20032;-84
2023/08/09 00:34:46;;;;;;;5.30;2.50;;;;;;;22.97;100.00;96062.72;5055727;28;20035;-83
2023/08/09 00:37:11;;;;;;;5.37;2.43;;;;;;;22.64;100.00;96071.44;5055436;28;20043;-85
2023/08/09 00:39:37;;;;;;;6.13;1.90;;;;;;;22.80;100.00;96068.00;5063732;28;20072;-85
2023/08/09 00:42:03;;;;;;;3.67;2.20;;;;;;;22.95;100.00;96074.72;5055660;28;20465;-84
2023/08/09 00:44:28;;;;;;;4.80;2.28;;;;;;;22.79;100.00;96068.22;5067540;28;20060;-85
2023/08/09 00:46:54;;;;;;;7.77;2.50;;;;;;;22.80;100.00;96065.31;5052145;28;20017;-85
2023/08/09 00:49:20;;;;;;;4.43;2.10;;;;;;;23.12;100.00;96058.66;5054397;28;20028;-85
2023/08/09 00:51:46;;;;;;;5.07;2.30;;;;;;;22.65;100.00;96058.84;5049904;28;20020;-84
2023/08/09 00:54:12;;;;;;;6.43;2.70;;;;;;;22.43;100.00;96056.00;5055379;28;20051;-85
2023/08/09 00:56:38;;;;;;;4.80;2.13;;;;;;;22.04;100.00;96058.44;5071754;28;20371;-85
2023/08/09 00:59:04;;;;;;;3.95;2.03;;;;;;;22.33;100.00;96060.16;5068901;28;20024;-85
2023/08/09 01:01:30;;;;;;;5.70;2.20;;;;;;;22.35;100.00;96060.69;5071140;28;20039;-84
2023/08/09 01:03:56;;;;;;;5.83;1.87;;;;;;;22.47;100.00;96057.19;5054574;28;20146;-84
2023/08/09 01:06:37;;;;;;;5.40;2.60;;;;;;;22.42;100.00;96075.84;5071539;28;20490;-84
2023/08/09 01:09:27;;;;;;;3.07;1.90;;;;;;;21.87;100.00;96072.53;5064170;28;20032;-84
2023/08/09 01:11:55;;;;;;;5.50;2.27;;;;;;;21.78;100.00;96086.50;5071203;28;20020;-84
2023/08/09 01:14:23;;;;;;;5.73;2.30;;;;;;;21.40;100.00;96077.88;5066669;28;20025;-83
2023/08/09 01:16:59;;;;;;;3.87;2.07;;;;;;;21.47;100.00;96059.03;5049432;28;20097;-82
2023/08/09 01:19:29;;;;;;;5.07;2.43;;;;;;;21.27;100.00;96050.50;5072315;28;20028;-82
2023/08/09 01:21:59;;;;;;;4.40;2.17;;;;;;;21.92;100.00;96049.59;5071506;28;20158;-82
2023/08/09 01:24:25;;;;;;;4.87;2.60;;;;;;;21.95;100.00;96049.13;5054426;28;20028;-83
2023/08/09 01:26:50;;;;;;;5.37;1.97;;;;;;;21.77;100.00;96036.72;5072230;28;20020;-83
2023/08/09 01:29:16;;;;;;;7.33;2.60;;;;;;;22.04;100.00;96037.81;5054480;28;20028;-82
2023/08/09 01:31:42;;;;;;;4.50;2.30;;;;;;;22.27;100.00;96045.00;5052455;28;20092;-83
2023/08/09 01:34:08;;;;;;;4.20;2.40;;;;;;;22.17;100.00;96046.69;5068101;28;20079;-82
2023/08/09 01:36:39;;;;;;;5.83;2.93;;;;;;;21.72;100.00;96039.25;5052517;28;20066;-82
2023/08/09 01:39:10;;;;;;;5.07;2.20;;;;;;;21.95;100.00;96043.78;5066608;28;20035;-82
2023/08/09 01:41:37;;;;;;;4.37;2.10;;;;;;;22.02;100.00;96044.44;5054300;28;20034;-83
2023/08/09 01:44:05;;;;;;;4.90;2.43;;;;;;;21.93;100.00;96052.06;5053508;28;20040;-82
2023/08/09 01:46:31;;;;;;;4.80;2.57;;;;;;;21.75;100.00;96044.94;5049961;28;20013;-83
2023/08/09 01:49:22;;;;;;;7.50;2.73;;;;;;;21.76;100.00;96041.22;5062287;28;20722;-83
2023/08/09 01:51:53;;;;;;;4.60;2.40;;;;;;;21.59;100.00;96030.41;5056094;28;20029;-83
2023/08/09 01:54:19;;;;;;;4.40;2.47;;;;;;;21.78;100.00;96039.13;5063565;28;20032;-83
2023/08/09 01:56:45;;;;;;;5.43;2.33;;;;;;;21.69;100.00;96035.19;5069756;28;20021;-83
2023/08/09 01:59:10;;;;;;;4.57;2.70;;;;;;;21.55;100.00;96031.94;5054671;28;20032;-83
2023/08/09 02:01:36;;;;;;;4.83;2.33;;;;;;;22.19;100.00;96028.50;5071096;28;20112;-83
2023/08/09 02:04:03;;;;;;;5.80;2.23;;;;;;;21.98;100.00;96035.28;5054948;28;20021;-82
2023/08/09 02:06:32;;;;;;;3.50;2.07;;;;;;;22.16;100.00;96031.63;5059921;28;20099;-82
2023/08/09 02:09:03;;;;;;;9.20;2.60;;;;;;;22.05;100.00;96034.09;5045721;28;20024;-83
2023/08/09 02:11:28;;;;;;;4.53;2.40;;;;;;;21.56;100.00;96043.44;5049319;28;20029;-83
2023/08/09 02:13:54;;;;;;;7.30;2.60;;;;;;;21.94;100.00;96037.59;5057234;28;20386;-83
2023/08/09 02:16:20;;;;;;;4.73;2.33;;;;;;;22.29;100.00;96034.84;5056443;28;20032;-83
2023/08/09 02:18:46;;;;;;;3.73;2.10;;;;;;;22.36;100.00;96045.44;5054865;28;20169;-83
2023/08/09 02:21:11;;;;;;;5.27;2.50;;;;;;;22.62;100.00;96044.06;5074694;28;20048;-83
2023/08/09 02:23:38;;;;;;;4.80;2.53;;;;;;;22.29;100.00;96050.94;5074480;28;20035;-83
2023/08/09 02:26:05;;;;;;;4.73;2.50;;;;;;;22.27;100.00;96057.59;5055509;28;20023;-83
2023/08/09 02:28:30;;;;;;;5.00;2.50;;;;;;;22.24;100.00;96066.91;5074902;28;20058;-83
2023/08/09 02:30:56;;;;;;;5.00;2.60;;;;;;;22.02;100.00;96072.03;5057973;28;20024;-83
2023/08/09 02:33:22;;;;;;;5.87;2.70;;;;;;;21.66;100.00;96067.75;5057526;28;20486;-83
2023/08/09 02:35:59;;;;;;;5.73;2.40;;;;;;;21.34;100.00;96076.13;5057801;28;20461;-83
2023/08/09 02:38:26;;;;;;;3.47;1.97;;;;;;;21.96;100.00;96070.28;5074406;28;20020;-83
2023/08/09 02:40:52;;;;;;;4.43;2.43;;;;;;;21.43;100.00;96076.63;5057677;28;20111;-83
2023/08/09 02:43:19;;;;;;;3.80;2.27;;;;;;;21.45;100.00;96073.69;5071527;28;20036;-83
2023/08/09 02:45:45;;;;;;;5.80;2.40;;;;;;;21.49;100.00;96070.31;5052224;28;20412;-83
2023/08/09 02:48:11;;;;;;;6.90;2.97;;;;;;;21.58;100.00;96076.16;5074047;28;20115;-83
2023/08/09 02:50:37;;;;;;;5.50;2.30;;;;;;;21.46;100.00;96068.09;5073226;28;20089;-83
2023/08/09 02:53:04;;;;;;;8.43;3.03;;;;;;;21.64;100.00;96068.00;5059756;28;20021;-83
2023/08/09 02:55:44;;;;;;;5.80;2.50;;;;;;;21.85;100.00;96071.94;5057190;28;20028;-83
2023/08/09 02:58:10;;;;;;;5.13;2.50;;;;;;;21.76;100.00;96073.34;5046742;28;20478;-84
2023/08/09 03:00:36;;;;;;;4.53;2.87;;;;;;;21.44;100.00;96077.44;5068617;28;20029;-83
2023/08/09 03:03:05;;;;;;;5.10;2.40;;;;;;;21.62;100.00;96082.66;5071989;28;20368;-82
2023/08/09 03:05:32;;;;;;;4.70;2.67;;;;;;;21.53;100.00;96081.38;5056008;28;20048;-83
2023/08/09 03:07:57;;;;;;;4.53;2.30;;;;;;;21.58;100.00;96074.28;5068853;28;20064;-84
2023/08/09 03:10:23;;;;;;;5.03;2.60;;;;;;;21.09;100.00;96070.94;5072785;28;20024;-83
2023/08/09 03:12:49;;;;;;;4.43;2.20;;;;;;;21.55;100.00;96077.41;5059933;28;20470;-84
2023/08/09 03:15:16;;;;;;;8.53;2.40;;;;;;;21.93;100.00;96078.81;5050082;28;20021;-83
2023/08/09 03:17:42;;;;;;;5.07;2.53;;;;;;;21.63;100.00;96078.94;5049102;28;20075;-84
2023/08/09 03:20:13;;;;;;;4.90;1.97;;;;;;;21.77;100.00;96076.84;5071288;28;20119;-83
2023/08/09 03:22:40;;;;;;;7.70;2.83;;;;;;;21.31;100.00;96073.06;5071007;28;20024;-84
2023/08/09 03:25:07;;;;;;;5.10;2.60;;;;;;;21.42;100.00;96073.09;5056913;28;20097;-83
2023/08/09 03:27:33;;;;;;;5.37;2.70;;;;;;;21.54;100.00;96072.31;5073574;28;20024;-83
2023/08/09 03:30:08;;;;;;;5.17;2.70;;;;;;;21.37;100.00;96067.66;5071423;28;20025;-84
2023/08/09 03:32:35;;;;;;;6.60;2.87;;;;;;;21.46;100.00;96068.09;5049669;28;20363;-84
2023/08/09 03:35:01;;;;;;;6.37;2.87;;;;;;;21.44;100.00;96072.06;5072831;28;20028;-84
2023/08/09 03:37:27;;;;;;;4.40;2.70;;;;;;;21.30;100.00;96068.78;5056298;28;20025;-83
2023/08/09 03:39:53;;;;;;;7.23;2.93;;;;;;;21.20;100.00;96069.34;5066005;28;20031;-83
2023/08/09 03:42:19;;;;;;;5.17;2.77;;;;;;;20.92;100.00;96061.94;5065442;28;20029;-84
2023/08/09 03:44:45;;;;;;;6.23;2.50;;;;;;;20.99;100.00;96065.31;5056408;28;20016;-83
2023/08/09 03:47:11;;;;;;;4.20;2.40;;;;;;;21.38;100.00;96066.59;5047298;28;20020;-83
2023/08/09 03:49:36;;;;;;;3.70;2.10;;;;;;;20.97;100.00;96069.28;5073087;28;20031;-83
2023/08/09 03:52:02;;;;;;;4.03;2.33;;;;;;;21.40;100.00;96074.41;5065038;28;20028;-83
2023/08/09 03:54:29;;;;;;;7.87;2.63;;;;;;;21.23;100.00;96076.91;5072832;28;20025;-84
2023/08/09 03:56:55;;;;;;;4.73;2.17;;;;;;;21.18;100.00;96071.41;5067239;28;20063;-83
2023/08/09 03:59:37;;;;;;;3.57;2.17;;;;;;;21.42;100.00;96064.25;5070552;28;20454;-83
2023/08/09 04:02:02;;;;;;;6.43;2.30;;;;;;;21.62;100.00;96078.13;5072339;28;20123;-84
2023/08/09 04:04:28;;;;;;;4.40;2.50;;;;;;;21.30;100.00;96080.28;5052997;28;20025;-83
2023/08/09 04:06:55;;;;;;;7.03;2.40;;;;;;;21.44;100.00;96070.22;5068820;28;20020;-83
2023/08/09 04:09:21;;;;;;;3.53;2.03;;;;;;;21.65;100.00;96071.50;5063189;28;20028;-83
2023/08/09 04:11:46;;;;;;;4.33;2.00;;;;;;;21.42;100.00;96072.28;5055606;28;20107;-83
2023/08/09 04:14:12;;;;;;;4.30;2.47;;;;;;;21.42;100.00;96081.13;5054621;28;20063;-83
2023/08/09 04:16:43;;;;;;;5.80;2.73;;;;;;;21.21;100.00;96076.31;5056344;28;20023;-83
2023/08/09 04:19:08;;;;;;;5.03;2.73;;;;;;;21.40;100.00;96066.38;5072772;28;20024;-83
2023/08/09 04:21:34;;;;;;;6.37;2.47;;;;;;;21.14;100.00;96062.22;5056156;28;20031;-83
2023/08/09 04:23:59;;;;;;;6.10;2.97;;;;;;;21.34;100.00;96060.06;5072627;28;20028;-83
2023/08/09 04:26:25;;;;;;;4.77;2.53;;;;;;;21.11;100.00;96060.81;5055301;28;20020;-83
2023/08/09 04:28:54;;;;;;;7.87;2.73;;;;;;;21.05;100.00;96056.38;5055568;28;20347;-84
2023/08/09 04:31:20;;;;;;;3.90;2.00;;;;;;;20.89;100.00;96049.03;5072310;28;20513;-84
2023/08/09 04:33:49;;;;;;;4.97;2.30;;;;;;;21.24;100.00;96042.94;5062500;28;20024;-83
2023/08/09 04:36:18;;;;;;;8.20;1.93;;;;;;;21.45;100.00;96044.25;5072108;28;20386;-83
2023/08/09 04:38:44;;;;;;;5.33;2.30;;;;;;;21.29;100.00;96041.19;5055929;28;20028;-84
2023/08/09 04:41:10;;;;;;;4.33;1.80;;;;;;;21.72;100.00;96050.78;5070310;28;20069;-83
2023/08/09 04:43:40;;;;;;;5.33;2.20;;;;;;;21.56;100.00;96054.16;5073896;28;20417;-83
2023/08/09 04:46:05;;;;;;;3.13;1.80;;;;;;;21.85;100.00;96055.06;5066029;28;20430;-83
2023/08/09 04:48:31;;;;;;;3.93;2.30;;;;;;;21.75;100.00;96062.88;5062949;28;20028;-83
2023/08/09 04:50:56;;;;;;;4.53;2.20;;;;;;;21.93;100.00;96051.22;5065223;28;20024;-82
2023/08/09 04:53:22;;;;;;;4.00;1.80;;;;;;;22.30;100.00;96068.66;5055157;28;20032;-83
2023/08/09 04:55:54;;;;;;;6.80;2.30;;;;;;;22.42;100.00;96057.06;5050171;28;20033;-83
2023/08/09 04:58:20;;;;;;;5.63;2.33;;;;;;;22.36;100.00;96059.66;5061146;28;20099;-83
2023/08/09 05:00:45;;;;;;;4.10;1.70;;;;;;;22.46;100.00;96053.66;5059076;28;20462;-83
2023/08/09 05:03:23;;;;;;;3.33;1.90;;;;;;;22.78;100.00;96047.84;5056814;28;20029;-83
2023/08/09 05:06:05;;;;;;;5.47;2.20;;;;;;;22.74;100.00;96049.38;5052185;28;20020;-83
2023/08/09 05:08:30;;;;;;;3.60;2.10;;;;;;;22.79;100.00;96050.28;5047319;28;20024;-83
2023/08/09 05:10:57;;;;;;;4.57;2.17;;;;;;;22.88;100.00;96044.53;5065734;28;20032;-83
2023/08/09 05:13:22;;;;;;;4.17;1.80;;;;;;;22.45;100.00;96045.88;5070366;28;20107;-83
2023/08/09 05:15:50;;;;;;;5.37;2.10;;;;;;;22.21;100.00;96037.94;5069707;28;20024;-83
2023/08/09 05:18:16;;;;;;;3.57;1.83;;;;;;;22.30;100.00;96041.03;5065404;28;20494;-83
2023/08/09 05:20:50;;;;;;;4.23;1.90;;;;;;;21.87;100.00;96036.94;5071570;28;20012;-84
2023/08/09 05:23:16;;;;;;;5.90;2.73;;;;;;;22.26;100.00;96045.25;5054263;28;20024;-84
2023/08/09 05:25:44;;;;;;;4.67;2.03;;;;;;;22.45;100.00;96033.28;5045118;28;20071;-84
2023/08/09 05:28:10;;;;;;;4.60;2.03;;;;;;;22.59;100.00;96042.66;5069348;28;20028;-84
2023/08/09 05:30:37;;;;;;;5.00;2.17;;;;;;;23.02;100.00;96035.97;5070957;28;20016;-83
2023/08/09 05:33:02;;;;;;;4.00;1.47;;;;;;;22.87;100.00;96040.22;5054488;28;20024;-83
2023/08/09 05:35:28;;;;;;;5.93;2.10;;;;;;;22.66;100.00;96039.03;5061650;28;20146;-83
2023/08/09 05:37:54;;;;;;;4.30;2.00;;;;;;;22.65;100.00;96040.91;5066280;28;20390;-83
2023/08/09 05:40:19;;;;;;;3.33;2.10;;;;;;;22.56;100.00;96045.00;5060846;28;20028;-83
2023/08/09 05:42:45;;;;;;;4.05;2.13;;;;;;;22.67;100.00;96046.00;5054491;28;20390;-85
2023/08/09 05:45:29;;;;;;;3.73;1.70;;;;;;;22.85;100.00;96047.69;5052779;28;20126;-85
2023/08/09 05:47:55;;;;;;;3.93;1.73;;;;;;;22.48;100.00;96042.72;5049823;28;20074;-85
2023/08/09 05:50:33;;;;;;;5.13;2.00;;;;;;;22.75;100.00;96053.69;5069744;28;20028;-85
2023/08/09 05:52:59;;;;;;;3.90;2.00;;;;;;;23.00;100.00;96045.28;5067028;28;20028;-84
2023/08/09 05:55:27;;;;;;;6.00;2.13;;;;;;;22.68;100.00;96040.44;5051237;28;20029;-89
2023/08/09 05:57:52;;;;;;;5.83;1.70;;;;;;;22.18;100.00;96040.25;5049547;28;20506;-84
2023/08/09 06:00:18;;;;;;;3.60;1.70;;;;;;;22.76;100.00;96040.03;5055118;28;20035;-85
2023/08/09 06:02:44;;;;;;;4.93;1.97;;;;;;;22.79;100.00;96042.22;5054564;28;20104;-84
2023/08/09 06:05:23;;;;;;;3.50;1.87;;;;;;;22.96;100.00;96044.16;5057129;28;20040;-84
2023/08/09 06:07:51;;;;;;;6.73;1.77;;;;;;;22.76;100.00;96053.44;5051220;28;20029;-85
2023/08/09 06:10:20;;;;;;;5.35;2.20;;;;;;;23.08;100.00;96047.59;5069186;28;20484;-84
2023/08/09 06:12:46;;;;;;;5.23;1.87;;;;;;;23.31;100.00;96052.00;5071298;28;20024;-84
2023/08/09 06:15:18;;;;;;;5.20;1.88;;;;;;;22.78;100.00;96059.38;5071343;28;20054;-83
2023/08/09 06:17:48;;;;;;;3.72;1.67;;;;;;;23.30;100.00;96051.16;5067553;28;20024;-84
2023/08/09 06:20:21;;;;;;;5.82;2.15;;;;;;;23.39;100.00;96056.94;5063613;28;20441;-84
2023/08/09 06:22:47;;;;;;;;;;;;;;;23.36;100.00;96059.31;5066789;28;20024;-84
2023/08/09 06:25:12;;;;;;;4.95;1.73;;;;;;;22.99;100.00;96062.44;5047506;28;20417;-84
2023/08/09 06:27:38;;;;;;;2.38;1.25;;;;;;;23.16;100.00;96062.47;5061856;28;20024;-84
2023/08/09 06:30:06;;;;;;;3.08;1.48;;;;;;;22.83;100.00;96059.44;5064218;28;20043;-84
2023/08/09 06:32:32;;;;;;;6.03;1.70;;;;;;;22.77;100.00;96055.06;5043161;28;20116;-84
2023/08/09 06:34:58;;;;;;;4.95;1.92;;;;;;;23.39;100.00;96058.81;5049382;28;20111;-84
2023/08/09 06:37:24;;;;;;;4.22;1.75;;;;;;;23.56;100.00;96056.13;5054441;28;20092;-84
2023/08/09 06:39:55;;;;;;;3.97;1.70;;;;;;;23.18;100.00;96058.50;5069520;28;20028;-84
2023/08/09 06:42:20;;;;;;;4.20;2.10;;;;;;;23.10;100.00;96066.94;5070339;28;20028;-84
2023/08/09 06:44:49;;;;;;;3.78;1.42;;;;;;;22.77;100.00;96068.47;5050653;28;20021;-84
2023/08/09 06:47:15;;;;;;;3.05;1.65;;;;;;;22.94;100.00;96078.47;5057605;28;20391;-84
2023/08/09 06:49:41;;;;;;;3.38;1.80;;;;;;;22.61;100.00;96069.25;5065796;28;20024;-85
2023/08/09 06:52:06;;;;;;;3.70;1.60;;;;;;;22.78;100.00;96062.06;5072494;28;20025;-84
2023/08/09 06:54:38;;;;;;;24.80;17.13;;;;;;;22.76;100.00;96060.66;5070669;28;20021;-84
2023/08/09 06:57:04;;;;;;;12.68;8.32;;;;;;;22.98;100.00;96058.16;5058004;28;20355;-88
2023/08/09 06:59:30;;;;;;;5.40;2.53;;;;;;;23.42;100.00;96058.34;5068045;28;20027;-88
2023/08/09 07:01:55;;;;;;;5.72;2.92;;;;;;;22.93;100.00;96047.31;5063128;28;20024;-88
2023/08/09 07:04:21;;;;;;;5.05;1.85;;;;;;;22.66;100.00;96055.94;5054318;28;20095;-88
2023/08/09 07:06:47;;;;;;;6.68;1.80;;;;;;;23.09;100.00;96062.63;5058449;28;20043;-88
2023/08/09 07:09:14;;;;;;;3.55;1.55;;;;;;;22.97;100.00;96065.38;5066626;28;20032;-88
2023/08/09 07:11:39;;;;;;;4.07;1.85;;;;;;;22.91;100.00;96071.69;5075595;28;20024;-88
2023/08/09 07:14:05;;;;;;;5.45;1.75;;;;;;;22.62;100.00;96076.22;5061502;28;20348;-88
2023/08/09 07:16:30;;;;;;;3.30;1.40;;;;;;;23.27;100.00;96083.03;5072745;28;20021;-88
2023/08/09 07:18:56;;;;;;;5.90;2.00;;;;;;;23.09;100.00;96086.75;5073504;28;20023;-88
2023/08/09 07:21:27;;;;;;;4.78;1.50;;;;;;;23.08;100.00;96090.50;5074318;28;20021;-86
2023/08/09 07:23:53;;;;;;;11.65;6.78;;;;;;;23.45;100.00;96095.41;5050293;28;20111;-84
2023/08/09 07:26:26;;;;;;;6.55;2.22;;;;;;;22.72;100.00;96097.88;5072205;28;20438;-85
2023/08/09 07:28:52;;;;;;;4.55;1.83;;;;;;;22.48;100.00;96099.81;5069067;28;20052;-84
2023/08/09 07:31:32;;;;;;;5.68;1.92;;;;;;;22.65;100.00;96101.75;5059255;28;20049;-85
2023/08/09 07:33:58;;;;;;;4.82;2.28;;;;;;;22.72;100.00;96100.53;5065139;28;20056;-84
2023/08/09 07:36:23;;;;;;;9.02;2.00;;;;;;;22.55;100.00;96105.03;5073188;28;20033;-85
2023/08/09 07:38:49;;;;;;;2.63;1.50;;;;;;;22.77;100.00;96118.59;5072780;28;20040;-85
2023/08/09 07:41:15;;;;;;;4.30;1.63;;;;;;;23.29;100.00;96113.94;5050961;28;20029;-85
2023/08/09 07:43:41;;;;;;;3.83;1.50;;;;;;;22.41;100.00;96127.81;5056171;28;20052;-86
2023/08/09 07:46:07;;;;;;;4.95;1.60;;;;;;;22.13;100.00;96115.91;5072548;28;20054;-85
2023/08/09 07:48:33;;;;;;;3.42;1.65;;;;;;;22.98;100.00;96114.47;5071615;28;20096;-84
2023/08/09 07:50:59;;;;;;;10.63;1.92;;;;;;;23.11;100.00;96122.22;5039974;28;20049;-84
2023/08/09 07:53:25;;;;;;;3.72;1.83;;;;;;;23.39;100.00;96120.53;5069791;28;20020;-85
2023/08/09 07:55:50;;;;;;;4.95;1.73;;;;;;;23.28;100.00;96130.28;5057739;28;20069;-84
2023/08/09 07:58:20;;;;;;;4.43;2.03;;;;;;;23.23;100.00;96125.63;5060614;28;20083;-85
2023/08/09 08:00:53;;;;;;;4.10;1.73;;;;;;;23.10;100.00;96130.50;5077548;28;20070;-85
2023/08/09 08:03:18;;;;;;;3.75;1.90;;;;;;;23.69;100.00;96126.44;5072153;28;20024;-85
2023/08/09 08:05:45;;;;;;;4.55;2.25;;;;;;;23.66;100.00;96136.81;5073052;28;20021;-85
2023/08/09 08:08:14;;;;;;;4.55;2.17;;;;;;;23.47;100.00;96141.59;5065147;28;20025;-85
2023/08/09 08:10:41;;;;;;;3.65;1.63;;;;;;;23.70;100.00;96140.66;5066951;28;20040;-84
2023/08/09 08:13:07;;;;;;;3.08;1.60;;;;;;;23.85;100.00;96143.59;5068818;28;20023;-85
2023/08/09 08:15:32;;;;;;;4.95;2.08;;;;;;;24.05;100.00;96143.09;5052945;28;20108;-84
2023/08/09 08:18:06;;;;;;;5.20;2.20;;;;;;;24.42;100.00;96143.38;5069281;28;20048;-85
2023/08/09 08:20:32;;;;;;;3.85;1.70;;;;;;;24.76;100.00;96148.63;5072530;28;20020;-84
2023/08/09 08:22:58;;;;;;;5.80;1.98;;;;;;;24.37;100.00;96155.88;5055596;28;20024;-84
2023/08/09 08:25:25;;;;;;;4.07;1.88;;;;;;;24.78;100.00;96151.88;5070233;28;20062;-85
2023/08/09 08:27:50;;;;;;;4.88;2.03;;;;;;;24.50;100.00;96154.75;5049910;28;20029;-86
2023/08/09 08:30:19;;;;;;;4.88;1.65;;;;;;;24.80;100.00;96160.50;5068703;28;20368;-86
2023/08/09 08:32:49;;;;;;;4.90;2.13;;;;;;;24.66;100.00;96162.75;5065590;28;20096;-87
2023/08/09 08:35:19;;;;;;;3.80;2.00;;;;;;;24.96;100.00;96164.19;5055178;28;20041;-86
2023/08/09 08:37:46;;;;;;;5.68;2.20;;;;;;;24.84;100.00;96167.00;5068809;28;20028;-86
2023/08/09 08:40:17;;;;;;;5.13;1.88;;;;;;;25.28;100.00;96161.56;5048924;28;20082;-86
2023/08/09 08:42:44;;;;;;;4.95;1.75;;;;;;;25.20;100.00;96170.13;5050139;28;20025;-87
2023/08/09 08:45:15;;;;;;;7.20;2.08;;;;;;;24.94;100.00;96166.28;5059622;28;20028;-87
2023/08/09 08:47:43;;;;;;;3.60;1.73;;;;;;;24.62;100.00;96164.31;5053913;28;20056;-86
2023/08/09 08:50:13;;;;;;;3.25;1.90;;;;;;;24.51;100.00;96176.00;5072077;28;20016;-87
2023/08/09 08:52:42;;;;;;;4.13;1.40;;;;;;;25.01;100.00;96164.22;5063535;28;20104;-90
2023/08/09 08:55:09;;;;;;;4.30;2.08;;;;;;;24.60;100.00;96182.56;5056085;28;20028;-87
2023/08/09 08:57:39;;;;;;;5.15;2.53;;;;;;;24.69;100.00;96183.75;5050792;28;20047;-85
2023/08/09 09:00:15;;;;;;;4.43;2.10;;;;;;;24.74;100.00;96188.38;5073956;28;20103;-87
2023/08/09 09:02:42;;;;;;;4.25;2.50;;;;;;;24.69;100.00;96194.53;5072673;28;20031;-88
2023/08/09 09:05:10;;;;;;;6.65;2.40;;;;;;;24.00;100.00;96196.72;5072771;28;20035;-87
2023/08/09 09:07:39;;;;;;;3.22;1.63;;;;;;;23.24;100.00;96204.28;5038677;28;20028;-87
2023/08/09 09:10:08;;;;;;;6.13;2.17;;;;;;;23.91;100.00;96199.03;5062140;28;20016;-87
2023/08/09 09:12:35;;;;;;;4.55;2.00;;;;;;;24.32;100.00;96198.84;5073262;28;20114;-86
2023/08/09 09:15:04;;;;;;;4.63;2.30;;;;;;;24.09;100.00;96203.31;5054815;28;20074;-86
2023/08/09 09:17:38;;;;;;;4.82;2.22;;;;;;;23.97;100.00;96199.91;5056987;28;20039;-87
2023/08/09 09:20:23;;;;;;;4.80;2.38;;;;;;;23.74;100.00;96207.09;5057341;28;20035;-87
2023/08/09 09:22:51;;;;;;;6.10;2.35;;;;;;;23.82;100.00;96205.84;5072835;28;20115;-87
2023/08/09 09:25:17;;;;;;;5.72;2.50;;;;;;;23.67;100.00;96211.72;5070811;28;20029;-86
2023/08/09 09:27:49;;;;;;;5.85;2.47;;;;;;;23.70;100.00;96211.28;5072758;28;20024;-86
2023/08/09 09:30:15;;;;;;;5.20;2.53;;;;;;;23.86;100.00;96204.31;5053220;28;20120;-86
2023/08/09 09:33:03;;;;;;;5.43;2.40;;;;;;;23.97;100.00;96211.47;5055385;28;20549;-86
2023/08/09 09:35:31;;;;;;;5.63;2.60;;;;;;;24.20;100.00;96209.66;5071527;28;20482;-86
2023/08/09 09:37:59;;;;;;;6.70;2.85;;;;;;;23.59;100.00;96212.16;5072388;28;20449;-87
2023/08/09 09:40:27;;;;;;;8.02;2.67;;;;;;;23.60;100.00;96218.31;5051310;28;20029;-86
2023/08/09 09:43:10;;;;;;;3.88;2.28;;;;;;;23.37;100.00;96212.00;5048787;28;20430;-88
2023/08/09 09:45:36;;;;;;;5.38;2.67;;;;;;;23.57;100.00;96210.75;5055234;28;20031;-85
2023/08/09 09:48:04;;;;;;;4.70;2.53;;;;;;;23.30;100.00;96222.88;5056073;28;20120;-84
2023/08/09 09:50:31;;;;;;;5.72;2.70;;;;;;;23.29;100.00;96221.28;5072557;28;20024;-86
2023/08/09 09:52:57;;;;;;;5.43;2.72;;;;;;;23.92;100.00;96206.03;5054105;28;20409;-85
2023/08/09 09:55:28;;;;;;;6.22;3.22;;;;;;;23.75;100.00;96210.56;5067899;28;20399;-83
2023/08/09 09:57:58;;;;;;;6.82;2.88;;;;;;;22.90;100.00;96216.72;5051499;28;20033;-84
2023/08/09 10:00:31;;;;;;;4.97;2.95;;;;;;;23.52;100.00;96214.97;5054659;28;20029;-86
2023/08/09 10:03:01;;;;;;;7.07;4.07;;;;;;;23.44;100.00;96228.81;5052242;28;20083;-84
2023/08/09 10:05:38;;;;;;;7.07;3.78;;;;;;;24.02;100.00;96213.44;5063445;28;20137;-86
2023/08/09 10:08:09;;;;;;;6.82;3.35;;;;;;;23.41;100.00;96233.84;5063943;28;20024;-83
2023/08/09 10:10:36;;;;;;;6.45;3.75;;;;;;;23.20;100.00;96233.44;5055579;28;20028;-83
2023/08/09 10:13:04;;;;;;;7.40;3.65;;;;;;;23.09;100.00;96238.84;5053998;28;20036;-84
2023/08/09 10:15:53;;;;;;;5.93;3.90;;;;;;;23.62;100.00;96226.97;5054731;28;20154;-85
2023/08/09 10:18:23;;;;;;;6.80;3.70;;;;;;;23.01;100.00;96234.69;5053868;28;20154;-86
2023/08/09 10:20:51;;;;;;;5.65;3.28;;;;;;;22.58;100.00;96230.53;5071287;28;20035;-85
2023/08/09 10:23:22;;;;;;;11.13;4.95;;;;;;;23.27;100.00;96236.81;5072158;28;20043;-84
2023/08/09 10:25:58;;;;;;;8.32;4.65;;;;;;;23.44;100.00;96236.84;5076532;28;20383;-84
2023/08/09 10:28:44;;;;;;;5.28;2.97;;;;;;;22.86;100.00;96237.81;5058316;28;20028;-84
2023/08/09 10:31:10;;;;;;;16.65;11.02;;;;;;;23.55;100.00;96234.34;5082828;28;20028;-84
2023/08/09 10:33:36;;;;;;;8.40;4.75;;;;;;;22.63;100.00;96244.03;5058356;28;20028;-84
2023/08/09 10:36:01;;;;;;;14.60;7.45;;;;;;;22.97;100.00;96238.88;5058205;28;20624;-84
2023/08/09 10:38:31;;;;;;;6.57;3.33;;;;;;;22.50;100.00;96250.47;5058923;28;20389;-85
2023/08/09 10:40:57;;;;;;;6.50;2.97;;;;;;;23.35;100.00;96242.84;5058561;28;20035;-84
2023/08/09 10:43:29;;;;;;;8.90;3.42;;;;;;;22.71;100.00;96248.25;5058627;28;20494;-84
2023/08/09 10:45:56;;;;;;;7.05;4.47;;;;;;;22.80;100.00;96244.13;5075593;28;20025;-84
2023/08/09 10:48:27;;;;;;;7.28;4.32;;;;;;;23.38;100.00;96243.19;5073599;28;20712;-84
2023/08/09 10:51:17;;;;;;;8.45;4.03;;;;;;;22.74;100.00;96245.09;5070463;28;20031;-84
2023/08/09 10:54:12;;;;;;;6.18;2.88;;;;;;;22.68;100.00;96248.72;5055147;28;20035;-86
2023/08/09 10:57:06;;;;;;;6.07;3.17;;;;;;;23.51;100.00;96239.41;5068059;28;20040;-83
2023/08/09 10:59:31;;;;;;;7.25;3.25;;;;;;;23.24;100.00;96244.53;5059469;28;20024;-82
2023/08/09 11:02:10;;;;;;;6.72;3.00;;;;;;;23.63;100.00;96242.81;5086922;28;20116;-84
2023/08/09 11:04:36;;;;;;;5.57;3.00;;;;;;;23.76;100.00;96244.41;5075114;28;20032;-85
2023/08/09 11:07:02;;;;;;;5.10;2.95;;;;;;;23.85;100.00;96247.53;5067536;28;20156;-85
2023/08/09 11:09:32;;;;;;;7.50;3.50;;;;;;;23.56;100.00;96247.53;5059728;28;20029;-83
2023/08/09 11:11:57;;;;;;;15.18;10.80;;;;;;;23.91;100.00;96239.31;5058527;28;20025;-86
2023/08/09 11:14:24;;;;;;;11.23;5.47;;;;;;;23.29;100.00;96250.78;5070116;28;20032;-85
2023/08/09 11:16:50;;;;;;;7.82;4.40;;;;;;;23.00;100.00;96252.66;5049881;28;20044;-85
2023/08/09 11:19:20;;;;;;;8.90;3.17;;;;;;;23.55;100.00;96251.28;5070573;28;20035;-84
2023/08/09 11:21:56;;;;;;;5.38;3.22;;;;;;;23.70;100.00;96242.69;5051247;28;20021;-84
2023/08/09 11:24:26;;;;;;;4.78;2.58;;;;;;;23.30;100.00;96247.03;5058415;28;20043;-84
2023/08/09 11:26:54;;;;;;;5.55;2.72;;;;;;;24.00;100.00;96235.16;5074832;28;20021;-83
2023/08/09 11:29:22;;;;;;;5.40;2.75;;;;;;;24.44;100.00;96238.00;5075178;28;20143;-84